sensor_id;sensor_type;location;lat;lon;timestamp;P1;durP1;ratioP1;P2;durP2;ratioP2
21814;SDS011;11069;48.988;8.450;2022-12-18T00:02:13;103.47;;;73.25;;
21814;SDS011;11069;48.988;8.450;2022-12-18T00:04:39;105.57;;;71.25;;
21814;SDS011;11069;48.988;8.450;2022-12-18T00:07:05;97.32;;;70.82;;
21814;SDS011;11069;48.988;8.450;2022-12-18T00:09:33;101.68;;;70.78;;
21814;SDS011;11069;48.988;8.450;2022-12-18T00:11:59;103.18;;;72.97;;
21814;SDS011;11069;48.988;8.450;2022-12-18T00:14:27;101.53;;;72.15;;
21814;SDS011;11069;48.988;8.450;2022-12-18T00:16:53;105.88;;;73.65;;
21814;SDS011;11069;48.988;8.450;2022-12-18T00:19:18;105.88;;;72.93;;
21814;SDS011;11069;48.988;8.450;2022-12-18T00:21:44;106.75;;;72.53;;
21814;SDS011;11069;48.988;8.450;2022-12-18T00:24:10;114.47;;;77.13;;
21814;SDS011;11069;48.988;8.450;2022-12-18T00:26:36;113.85;;;78.10;;
21814;SDS011;11069;48.988;8.450;2022-12-18T00:29:04;110.65;;;75.13;;
21814;SDS011;11069;48.988;8.450;2022-12-18T00:31:32;113.18;;;77.00;;
21814;SDS011;11069;48.988;8.450;2022-12-18T00:33:58;112.35;;;76.60;;
21814;SDS011;11069;48.988;8.450;2022-12-18T00:36:25;109.40;;;75.97;;
21814;SDS011;11069;48.988;8.450;2022-12-18T00:38:53;105.13;;;73.40;;
21814;SDS011;11069;48.988;8.450;2022-12-18T00:41:20;110.95;;;75.40;;
21814;SDS011;11069;48.988;8.450;2022-12-18T00:44:05;116.50;;;75.30;;
21814;SDS011;11069;48.988;8.450;2022-12-18T00:46:31;111.38;;;75.78;;
21814;SDS011;11069;48.988;8.450;2022-12-18T00:48:57;114.88;;;75.72;;
21814;SDS011;11069;48.988;8.450;2022-12-18T00:51:23;110.97;;;75.53;;
21814;SDS011;11069;48.988;8.450;2022-12-18T00:53:50;113.72;;;77.25;;
21814;SDS011;11069;48.988;8.450;2022-12-18T00:56:15;113.93;;;75.80;;
21814;SDS011;11069;48.988;8.450;2022-12-18T00:58:41;105.97;;;72.00;;
21814;SDS011;11069;48.988;8.450;2022-12-18T01:01:07;108.07;;;73.85;;
21814;SDS011;11069;48.988;8.450;2022-12-18T01:03:33;105.07;;;70.63;;
21814;SDS011;11069;48.988;8.450;2022-12-18T01:05:58;102.72;;;71.40;;
21814;SDS011;11069;48.988;8.450;2022-12-18T01:08:24;103.68;;;71.55;;
21814;SDS011;11069;48.988;8.450;2022-12-18T01:10:50;103.18;;;71.60;;
21814;SDS011;11069;48.988;8.450;2022-12-18T01:13:16;101.20;;;70.72;;
21814;SDS011;11069;48.988;8.450;2022-12-18T01:15:47;102.05;;;71.03;;
21814;SDS011;11069;48.988;8.450;2022-12-18T01:18:16;103.55;;;71.80;;
21814;SDS011;11069;48.988;8.450;2022-12-18T01:20:42;102.70;;;71.32;;
21814;SDS011;11069;48.988;8.450;2022-12-18T01:23:07;100.80;;;70.47;;
21814;SDS011;11069;48.988;8.450;2022-12-18T01:25:33;101.00;;;69.60;;
21814;SDS011;11069;48.988;8.450;2022-12-18T01:28:01;100.20;;;70.70;;
21814;SDS011;11069;48.988;8.450;2022-12-18T01:30:29;99.47;;;68.60;;
21814;SDS011;11069;48.988;8.450;2022-12-18T01:32:55;102.18;;;69.72;;
21814;SDS011;11069;48.988;8.450;2022-12-18T01:35:20;102.53;;;70.25;;
21814;SDS011;11069;48.988;8.450;2022-12-18T01:37:46;96.25;;;68.32;;
21814;SDS011;11069;48.988;8.450;2022-12-18T01:40:11;90.10;;;65.78;;
21814;SDS011;11069;48.988;8.450;2022-12-18T01:42:37;94.22;;;64.70;;
21814;SDS011;11069;48.988;8.450;2022-12-18T01:45:04;93.32;;;64.55;;
21814;SDS011;11069;48.988;8.450;2022-12-18T01:47:38;95.43;;;64.93;;
21814;SDS011;11069;48.988;8.450;2022-12-18T01:50:38;95.30;;;65.38;;
21814;SDS011;11069;48.988;8.450;2022-12-18T01:53:34;85.65;;;62.60;;
21814;SDS011;11069;48.988;8.450;2022-12-18T01:55:54;85.60;;;62.25;;
21814;SDS011;11069;48.988;8.450;2022-12-18T01:58:32;93.47;;;65.90;;
21814;SDS011;11069;48.988;8.450;2022-12-18T02:01:04;89.95;;;63.97;;
21814;SDS011;11069;48.988;8.450;2022-12-18T02:03:30;95.85;;;67.03;;
21814;SDS011;11069;48.988;8.450;2022-12-18T02:06:06;100.43;;;68.05;;
21814;SDS011;11069;48.988;8.450;2022-12-18T02:18:58;98.68;;;66.13;;
21814;SDS011;11069;48.988;8.450;2022-12-18T02:26:56;98.72;;;68.88;;
21814;SDS011;11069;48.988;8.450;2022-12-18T02:29:41;109.55;;;72.25;;
21814;SDS011;11069;48.988;8.450;2022-12-18T02:32:15;130.70;;;80.10;;
21814;SDS011;11069;48.988;8.450;2022-12-18T02:34:48;114.60;;;73.50;;
21814;SDS011;11069;48.988;8.450;2022-12-18T02:37:16;117.78;;;76.32;;
21814;SDS011;11069;48.988;8.450;2022-12-18T02:39:44;115.18;;;74.63;;
21814;SDS011;11069;48.988;8.450;2022-12-18T02:42:12;113.28;;;74.97;;
21814;SDS011;11069;48.988;8.450;2022-12-18T02:44:42;124.47;;;77.70;;
21814;SDS011;11069;48.988;8.450;2022-12-18T02:47:09;123.68;;;78.88;;
21814;SDS011;11069;48.988;8.450;2022-12-18T03:02:46;119.43;;;76.97;;
21814;SDS011;11069;48.988;8.450;2022-12-18T03:05:28;142.35;;;83.60;;
21814;SDS011;11069;48.988;8.450;2022-12-18T03:08:10;133.27;;;81.47;;
21814;SDS011;11069;48.988;8.450;2022-12-18T03:10:47;129.93;;;82.07;;
21814;SDS011;11069;48.988;8.450;2022-12-18T03:13:20;131.45;;;81.45;;
21814;SDS011;11069;48.988;8.450;2022-12-18T03:16:15;126.32;;;77.47;;
21814;SDS011;11069;48.988;8.450;2022-12-18T03:21:17;129.93;;;80.50;;
21814;SDS011;11069;48.988;8.450;2022-12-18T03:23:48;134.70;;;82.55;;
21814;SDS011;11069;48.988;8.450;2022-12-18T03:26:17;124.80;;;80.18;;
21814;SDS011;11069;48.988;8.450;2022-12-18T03:28:49;160.27;;;85.03;;
21814;SDS011;11069;48.988;8.450;2022-12-18T03:31:19;127.25;;;78.90;;
21814;SDS011;11069;48.988;8.450;2022-12-18T03:33:52;146.93;;;85.65;;
21814;SDS011;11069;48.988;8.450;2022-12-18T03:36:19;122.60;;;77.18;;
21814;SDS011;11069;48.988;8.450;2022-12-18T03:38:45;150.48;;;83.85;;
21814;SDS011;11069;48.988;8.450;2022-12-18T03:41:30;133.27;;;84.25;;
21814;SDS011;11069;48.988;8.450;2022-12-18T03:54:55;128.65;;;82.10;;
21814;SDS011;11069;48.988;8.450;2022-12-18T03:57:24;121.43;;;77.55;;
21814;SDS011;11069;48.988;8.450;2022-12-18T03:59:55;121.00;;;79.13;;
21814;SDS011;11069;48.988;8.450;2022-12-18T04:02:27;119.80;;;77.80;;
21814;SDS011;11069;48.988;8.450;2022-12-18T04:04:55;121.88;;;78.43;;
21814;SDS011;11069;48.988;8.450;2022-12-18T04:07:24;96.13;;;59.70;;
21814;SDS011;11069;48.988;8.450;2022-12-18T04:09:50;128.00;;;79.85;;
21814;SDS011;11069;48.988;8.450;2022-12-18T04:12:21;123.63;;;78.07;;
21814;SDS011;11069;48.988;8.450;2022-12-18T04:14:48;155.70;;;83.95;;
21814;SDS011;11069;48.988;8.450;2022-12-18T04:17:14;120.95;;;77.35;;
21814;SDS011;11069;48.988;8.450;2022-12-18T04:19:39;122.20;;;78.57;;
21814;SDS011;11069;48.988;8.450;2022-12-18T04:22:05;129.50;;;83.53;;
21814;SDS011;11069;48.988;8.450;2022-12-18T04:24:30;143.10;;;85.50;;
21814;SDS011;11069;48.988;8.450;2022-12-18T04:26:56;134.35;;;83.13;;
21814;SDS011;11069;48.988;8.450;2022-12-18T04:29:21;124.00;;;79.05;;
21814;SDS011;11069;48.988;8.450;2022-12-18T04:31:47;131.70;;;84.25;;
21814;SDS011;11069;48.988;8.450;2022-12-18T04:34:13;121.00;;;78.03;;
21814;SDS011;11069;48.988;8.450;2022-12-18T04:36:38;125.72;;;80.22;;
21814;SDS011;11069;48.988;8.450;2022-12-18T04:39:04;118.57;;;77.47;;
21814;SDS011;11069;48.988;8.450;2022-12-18T04:41:29;124.00;;;78.95;;
21814;SDS011;11069;48.988;8.450;2022-12-18T04:43:55;123.95;;;79.10;;
21814;SDS011;11069;48.988;8.450;2022-12-18T04:46:20;141.23;;;86.07;;
21814;SDS011;11069;48.988;8.450;2022-12-18T04:48:46;129.25;;;81.53;;
21814;SDS011;11069;48.988;8.450;2022-12-18T04:51:12;127.88;;;80.57;;
21814;SDS011;11069;48.988;8.450;2022-12-18T04:53:37;139.93;;;85.07;;
21814;SDS011;11069;48.988;8.450;2022-12-18T04:56:07;132.00;;;83.03;;
21814;SDS011;11069;48.988;8.450;2022-12-18T04:58:35;140.52;;;85.00;;
21814;SDS011;11069;48.988;8.450;2022-12-18T05:01:02;149.20;;;87.82;;
21814;SDS011;11069;48.988;8.450;2022-12-18T05:03:28;136.07;;;83.05;;
21814;SDS011;11069;48.988;8.450;2022-12-18T05:05:54;135.40;;;82.60;;
21814;SDS011;11069;48.988;8.450;2022-12-18T05:08:19;126.22;;;79.50;;
21814;SDS011;11069;48.988;8.450;2022-12-18T05:10:45;117.38;;;75.93;;
21814;SDS011;11069;48.988;8.450;2022-12-18T05:13:11;116.22;;;74.47;;
21814;SDS011;11069;48.988;8.450;2022-12-18T05:15:36;125.35;;;76.18;;
21814;SDS011;11069;48.988;8.450;2022-12-18T05:18:02;122.40;;;76.68;;
21814;SDS011;11069;48.988;8.450;2022-12-18T05:20:29;122.63;;;77.07;;
21814;SDS011;11069;48.988;8.450;2022-12-18T05:22:55;118.93;;;75.57;;
21814;SDS011;11069;48.988;8.450;2022-12-18T05:25:21;118.72;;;78.07;;
21814;SDS011;11069;48.988;8.450;2022-12-18T05:27:47;121.88;;;77.43;;
21814;SDS011;11069;48.988;8.450;2022-12-18T05:30:13;126.32;;;80.20;;
21814;SDS011;11069;48.988;8.450;2022-12-18T05:32:40;114.38;;;75.43;;
21814;SDS011;11069;48.988;8.450;2022-12-18T05:35:07;116.65;;;74.53;;
21814;SDS011;11069;48.988;8.450;2022-12-18T05:37:33;118.72;;;76.00;;
21814;SDS011;11069;48.988;8.450;2022-12-18T05:39:59;121.47;;;76.60;;
21814;SDS011;11069;48.988;8.450;2022-12-18T05:42:25;118.53;;;76.30;;
21814;SDS011;11069;48.988;8.450;2022-12-18T05:44:50;120.60;;;76.20;;
21814;SDS011;11069;48.988;8.450;2022-12-18T05:47:16;126.22;;;78.15;;
21814;SDS011;11069;48.988;8.450;2022-12-18T05:49:41;124.93;;;77.65;;
21814;SDS011;11069;48.988;8.450;2022-12-18T05:52:07;120.90;;;76.43;;
21814;SDS011;11069;48.988;8.450;2022-12-18T05:54:33;123.47;;;76.03;;
21814;SDS011;11069;48.988;8.450;2022-12-18T05:56:58;130.30;;;79.53;;
21814;SDS011;11069;48.988;8.450;2022-12-18T05:59:24;116.07;;;74.72;;
21814;SDS011;11069;48.988;8.450;2022-12-18T06:01:49;122.95;;;78.63;;
21814;SDS011;11069;48.988;8.450;2022-12-18T06:04:15;126.35;;;79.00;;
21814;SDS011;11069;48.988;8.450;2022-12-18T06:06:41;114.80;;;73.55;;
21814;SDS011;11069;48.988;8.450;2022-12-18T06:09:06;121.78;;;77.82;;
21814;SDS011;11069;48.988;8.450;2022-12-18T06:11:34;110.88;;;72.05;;
21814;SDS011;11069;48.988;8.450;2022-12-18T06:14:02;121.97;;;76.45;;
21814;SDS011;11069;48.988;8.450;2022-12-18T06:16:28;113.78;;;73.28;;
21814;SDS011;11069;48.988;8.450;2022-12-18T06:18:58;117.78;;;74.70;;
21814;SDS011;11069;48.988;8.450;2022-12-18T06:21:24;102.28;;;70.07;;
21814;SDS011;11069;48.988;8.450;2022-12-18T06:23:50;112.32;;;73.82;;
21814;SDS011;11069;48.988;8.450;2022-12-18T06:26:15;105.53;;;71.30;;
21814;SDS011;11069;48.988;8.450;2022-12-18T06:28:41;104.45;;;70.60;;
21814;SDS011;11069;48.988;8.450;2022-12-18T06:31:07;109.03;;;72.63;;
21814;SDS011;11069;48.988;8.450;2022-12-18T06:33:33;101.38;;;67.55;;
21814;SDS011;11069;48.988;8.450;2022-12-18T06:36:02;104.50;;;71.85;;
21814;SDS011;11069;48.988;8.450;2022-12-18T06:38:34;104.38;;;70.88;;
21814;SDS011;11069;48.988;8.450;2022-12-18T06:41:05;107.03;;;69.53;;
21814;SDS011;11069;48.988;8.450;2022-12-18T06:43:35;108.25;;;71.68;;
21814;SDS011;11069;48.988;8.450;2022-12-18T06:46:01;111.93;;;72.32;;
21814;SDS011;11069;48.988;8.450;2022-12-18T06:48:27;113.53;;;73.35;;
21814;SDS011;11069;48.988;8.450;2022-12-18T06:50:53;104.57;;;70.50;;
21814;SDS011;11069;48.988;8.450;2022-12-18T06:53:19;109.00;;;71.82;;
21814;SDS011;11069;48.988;8.450;2022-12-18T06:55:44;108.03;;;71.45;;
21814;SDS011;11069;48.988;8.450;2022-12-18T06:58:10;107.93;;;70.50;;
21814;SDS011;11069;48.988;8.450;2022-12-18T07:00:36;103.70;;;69.47;;
21814;SDS011;11069;48.988;8.450;2022-12-18T07:03:01;98.60;;;67.43;;
21814;SDS011;11069;48.988;8.450;2022-12-18T07:05:27;105.43;;;70.30;;
21814;SDS011;11069;48.988;8.450;2022-12-18T07:07:52;104.70;;;69.10;;
21814;SDS011;11069;48.988;8.450;2022-12-18T07:10:18;108.82;;;69.38;;
21814;SDS011;11069;48.988;8.450;2022-12-18T07:12:43;100.40;;;66.90;;
21814;SDS011;11069;48.988;8.450;2022-12-18T07:15:09;100.60;;;66.88;;
21814;SDS011;11069;48.988;8.450;2022-12-18T07:17:35;98.95;;;66.43;;
21814;SDS011;11069;48.988;8.450;2022-12-18T07:20:00;96.45;;;65.30;;
21814;SDS011;11069;48.988;8.450;2022-12-18T07:22:26;97.80;;;65.95;;
21814;SDS011;11069;48.988;8.450;2022-12-18T07:24:52;99.40;;;67.25;;
21814;SDS011;11069;48.988;8.450;2022-12-18T07:27:18;101.82;;;67.25;;
21814;SDS011;11069;48.988;8.450;2022-12-18T07:29:43;102.78;;;68.20;;
21814;SDS011;11069;48.988;8.450;2022-12-18T07:32:09;103.38;;;67.10;;
21814;SDS011;11069;48.988;8.450;2022-12-18T07:34:34;97.75;;;65.22;;
21814;SDS011;11069;48.988;8.450;2022-12-18T07:37:00;101.50;;;66.90;;
21814;SDS011;11069;48.988;8.450;2022-12-18T07:39:26;99.20;;;66.20;;
21814;SDS011;11069;48.988;8.450;2022-12-18T07:41:51;103.32;;;64.78;;
21814;SDS011;11069;48.988;8.450;2022-12-18T07:44:35;96.93;;;63.78;;
21814;SDS011;11069;48.988;8.450;2022-12-18T07:47:01;100.47;;;65.60;;
21814;SDS011;11069;48.988;8.450;2022-12-18T07:49:27;101.70;;;66.95;;
21814;SDS011;11069;48.988;8.450;2022-12-18T07:51:54;102.60;;;64.93;;
21814;SDS011;11069;48.988;8.450;2022-12-18T07:54:21;100.78;;;64.97;;
21814;SDS011;11069;48.988;8.450;2022-12-18T07:56:47;104.18;;;64.90;;
21814;SDS011;11069;48.988;8.450;2022-12-18T07:59:12;96.88;;;63.30;;
21814;SDS011;11069;48.988;8.450;2022-12-18T08:01:38;90.65;;;61.72;;
21814;SDS011;11069;48.988;8.450;2022-12-18T08:04:03;96.85;;;62.00;;
21814;SDS011;11069;48.988;8.450;2022-12-18T08:06:29;99.82;;;64.72;;
21814;SDS011;11069;48.988;8.450;2022-12-18T08:08:55;111.68;;;69.47;;
21814;SDS011;11069;48.988;8.450;2022-12-18T08:11:22;112.32;;;69.40;;
21814;SDS011;11069;48.988;8.450;2022-12-18T08:13:49;107.82;;;68.95;;
21814;SDS011;11069;48.988;8.450;2022-12-18T08:16:14;101.95;;;67.93;;
21814;SDS011;11069;48.988;8.450;2022-12-18T08:18:40;105.50;;;67.50;;
21814;SDS011;11069;48.988;8.450;2022-12-18T08:21:13;109.72;;;68.47;;
21814;SDS011;11069;48.988;8.450;2022-12-18T08:23:43;108.07;;;69.18;;
21814;SDS011;11069;48.988;8.450;2022-12-18T08:26:13;106.75;;;69.32;;
21814;SDS011;11069;48.988;8.450;2022-12-18T08:28:38;114.07;;;71.15;;
21814;SDS011;11069;48.988;8.450;2022-12-18T08:31:05;107.95;;;68.70;;
21814;SDS011;11069;48.988;8.450;2022-12-18T08:33:31;110.97;;;68.65;;
21814;SDS011;11069;48.988;8.450;2022-12-18T08:35:58;107.45;;;70.15;;
21814;SDS011;11069;48.988;8.450;2022-12-18T08:38:24;109.18;;;70.65;;
21814;SDS011;11069;48.988;8.450;2022-12-18T08:40:57;107.07;;;69.10;;
21814;SDS011;11069;48.988;8.450;2022-12-18T08:43:27;110.25;;;69.88;;
21814;SDS011;11069;48.988;8.450;2022-12-18T08:46:12;109.32;;;70.03;;
21814;SDS011;11069;48.988;8.450;2022-12-18T08:48:37;106.45;;;68.82;;
21814;SDS011;11069;48.988;8.450;2022-12-18T08:51:03;105.00;;;68.82;;
21814;SDS011;11069;48.988;8.450;2022-12-18T08:53:28;100.25;;;67.40;;
21814;SDS011;11069;48.988;8.450;2022-12-18T08:55:55;101.10;;;67.60;;
21814;SDS011;11069;48.988;8.450;2022-12-18T08:58:21;101.35;;;68.07;;
21814;SDS011;11069;48.988;8.450;2022-12-18T09:00:47;103.35;;;68.10;;
21814;SDS011;11069;48.988;8.450;2022-12-18T09:03:16;99.85;;;67.53;;
21814;SDS011;11069;48.988;8.450;2022-12-18T09:05:43;106.00;;;69.28;;
21814;SDS011;11069;48.988;8.450;2022-12-18T09:08:10;110.43;;;73.15;;
21814;SDS011;11069;48.988;8.450;2022-12-18T09:10:46;100.35;;;68.32;;
21814;SDS011;11069;48.988;8.450;2022-12-18T09:13:13;98.88;;;65.15;;
21814;SDS011;11069;48.988;8.450;2022-12-18T09:15:44;95.00;;;63.58;;
21814;SDS011;11069;48.988;8.450;2022-12-18T09:18:15;95.85;;;64.55;;
21814;SDS011;11069;48.988;8.450;2022-12-18T09:20:42;96.68;;;65.63;;
21814;SDS011;11069;48.988;8.450;2022-12-18T09:23:08;90.03;;;63.35;;
21814;SDS011;11069;48.988;8.450;2022-12-18T09:25:34;90.63;;;62.72;;
21814;SDS011;11069;48.988;8.450;2022-12-18T09:28:14;90.97;;;61.45;;
21814;SDS011;11069;48.988;8.450;2022-12-18T09:30:42;69.03;;;47.58;;
21814;SDS011;11069;48.988;8.450;2022-12-18T09:33:10;88.70;;;62.20;;
21814;SDS011;11069;48.988;8.450;2022-12-18T09:35:36;94.30;;;62.90;;
21814;SDS011;11069;48.988;8.450;2022-12-18T09:38:02;92.88;;;64.57;;
21814;SDS011;11069;48.988;8.450;2022-12-18T09:40:28;93.47;;;64.30;;
21814;SDS011;11069;48.988;8.450;2022-12-18T09:43:00;92.47;;;62.92;;
21814;SDS011;11069;48.988;8.450;2022-12-18T09:45:49;91.27;;;63.40;;
21814;SDS011;11069;48.988;8.450;2022-12-18T09:48:23;93.70;;;65.07;;
21814;SDS011;11069;48.988;8.450;2022-12-18T09:50:50;132.70;;;100.25;;
21814;SDS011;11069;48.988;8.450;2022-12-18T09:53:22;94.47;;;66.75;;
21814;SDS011;11069;48.988;8.450;2022-12-18T09:55:52;91.63;;;65.65;;
21814;SDS011;11069;48.988;8.450;2022-12-18T09:58:30;88.18;;;63.35;;
21814;SDS011;11069;48.988;8.450;2022-12-18T10:00:59;85.22;;;59.28;;
21814;SDS011;11069;48.988;8.450;2022-12-18T10:03:25;83.78;;;60.20;;
21814;SDS011;11069;48.988;8.450;2022-12-18T10:14:06;86.68;;;59.55;;
21814;SDS011;11069;48.988;8.450;2022-12-18T10:19:37;83.82;;;58.88;;
21814;SDS011;11069;48.988;8.450;2022-12-18T10:27:47;84.43;;;59.10;;
21814;SDS011;11069;48.988;8.450;2022-12-18T10:30:20;62.80;;;46.95;;
21814;SDS011;11069;48.988;8.450;2022-12-18T10:32:47;95.72;;;66.95;;
21814;SDS011;11069;48.988;8.450;2022-12-18T10:35:20;84.85;;;60.13;;
21814;SDS011;11069;48.988;8.450;2022-12-18T10:38:48;84.95;;;60.33;;
21814;SDS011;11069;48.988;8.450;2022-12-18T10:43:20;93.00;;;65.90;;
21814;SDS011;11069;48.988;8.450;2022-12-18T10:48:35;97.70;;;70.78;;
21814;SDS011;11069;48.988;8.450;2022-12-18T10:54:01;86.68;;;59.88;;
21814;SDS011;11069;48.988;8.450;2022-12-18T10:56:31;67.30;;;46.35;;
21814;SDS011;11069;48.988;8.450;2022-12-18T10:59:08;93.32;;;63.22;;
21814;SDS011;11069;48.988;8.450;2022-12-18T11:04:22;93.40;;;61.58;;
21814;SDS011;11069;48.988;8.450;2022-12-18T11:09:29;89.55;;;64.65;;
21814;SDS011;11069;48.988;8.450;2022-12-18T11:11:59;85.15;;;60.38;;
21814;SDS011;11069;48.988;8.450;2022-12-18T11:14:34;86.18;;;60.70;;
21814;SDS011;11069;48.988;8.450;2022-12-18T11:17:16;82.95;;;57.80;;
21814;SDS011;11069;48.988;8.450;2022-12-18T11:23:00;81.55;;;56.83;;
21814;SDS011;11069;48.988;8.450;2022-12-18T11:25:31;82.40;;;57.92;;
21814;SDS011;11069;48.988;8.450;2022-12-18T11:28:05;81.72;;;58.38;;
21814;SDS011;11069;48.988;8.450;2022-12-18T11:30:55;78.43;;;56.58;;
21814;SDS011;11069;48.988;8.450;2022-12-18T11:33:44;85.72;;;59.42;;
21814;SDS011;11069;48.988;8.450;2022-12-18T11:36:39;76.15;;;55.65;;
21814;SDS011;11069;48.988;8.450;2022-12-18T11:39:15;81.03;;;57.63;;
21814;SDS011;11069;48.988;8.450;2022-12-18T11:49:55;75.97;;;53.92;;
21814;SDS011;11069;48.988;8.450;2022-12-18T11:52:26;75.90;;;55.45;;
21814;SDS011;11069;48.988;8.450;2022-12-18T11:58:21;84.72;;;55.58;;
21814;SDS011;11069;48.988;8.450;2022-12-18T12:00:48;73.30;;;54.10;;
21814;SDS011;11069;48.988;8.450;2022-12-18T12:04:00;73.45;;;54.20;;
21814;SDS011;11069;48.988;8.450;2022-12-18T12:20:32;73.53;;;53.00;;
21814;SDS011;11069;48.988;8.450;2022-12-18T12:25:50;73.03;;;53.05;;
21814;SDS011;11069;48.988;8.450;2022-12-18T12:31:35;73.45;;;55.20;;
21814;SDS011;11069;48.988;8.450;2022-12-18T12:39:12;71.55;;;51.40;;
21814;SDS011;11069;48.988;8.450;2022-12-18T12:41:42;71.95;;;52.20;;
21814;SDS011;11069;48.988;8.450;2022-12-18T12:44:34;74.38;;;51.90;;
21814;SDS011;11069;48.988;8.450;2022-12-18T12:47:13;71.13;;;52.72;;
21814;SDS011;11069;48.988;8.450;2022-12-18T12:49:41;71.00;;;52.30;;
21814;SDS011;11069;48.988;8.450;2022-12-18T12:52:13;75.15;;;52.33;;
21814;SDS011;11069;48.988;8.450;2022-12-18T12:54:42;59.05;;;41.47;;
21814;SDS011;11069;48.988;8.450;2022-12-18T12:57:11;69.03;;;52.17;;
21814;SDS011;11069;48.988;8.450;2022-12-18T13:02:30;70.60;;;50.67;;
21814;SDS011;11069;48.988;8.450;2022-12-18T13:08:25;70.95;;;50.80;;
21814;SDS011;11069;48.988;8.450;2022-12-18T13:10:55;72.35;;;54.42;;
21814;SDS011;11069;48.988;8.450;2022-12-18T13:13:53;68.63;;;51.38;;
21814;SDS011;11069;48.988;8.450;2022-12-18T13:16:24;72.78;;;50.42;;
21814;SDS011;11069;48.988;8.450;2022-12-18T13:18:54;73.40;;;52.60;;
21814;SDS011;11069;48.988;8.450;2022-12-18T13:21:33;75.03;;;53.35;;
21814;SDS011;11069;48.988;8.450;2022-12-18T13:24:15;72.60;;;52.38;;
21814;SDS011;11069;48.988;8.450;2022-12-18T13:26:52;74.80;;;54.58;;
21814;SDS011;11069;48.988;8.450;2022-12-18T13:32:23;72.20;;;53.63;;
21814;SDS011;11069;48.988;8.450;2022-12-18T13:37:43;76.88;;;55.58;;
21814;SDS011;11069;48.988;8.450;2022-12-18T13:40:45;66.45;;;52.42;;
21814;SDS011;11069;48.988;8.450;2022-12-18T13:45:48;70.50;;;53.80;;
21814;SDS011;11069;48.988;8.450;2022-12-18T13:48:24;73.63;;;54.83;;
21814;SDS011;11069;48.988;8.450;2022-12-18T13:51:01;68.10;;;52.10;;
21814;SDS011;11069;48.988;8.450;2022-12-18T13:53:53;68.85;;;53.13;;
21814;SDS011;11069;48.988;8.450;2022-12-18T13:56:27;71.53;;;53.80;;
21814;SDS011;11069;48.988;8.450;2022-12-18T13:59:05;77.68;;;55.50;;
21814;SDS011;11069;48.988;8.450;2022-12-18T14:01:42;73.28;;;54.70;;
21814;SDS011;11069;48.988;8.450;2022-12-18T14:04:18;76.75;;;55.33;;
21814;SDS011;11069;48.988;8.450;2022-12-18T14:06:44;75.80;;;55.33;;
21814;SDS011;11069;48.988;8.450;2022-12-18T14:09:14;79.30;;;57.65;;
21814;SDS011;11069;48.988;8.450;2022-12-18T14:11:47;73.47;;;56.95;;
21814;SDS011;11069;48.988;8.450;2022-12-18T14:14:15;79.85;;;57.10;;
21814;SDS011;11069;48.988;8.450;2022-12-18T14:16:42;82.30;;;57.92;;
21814;SDS011;11069;48.988;8.450;2022-12-18T14:19:11;79.15;;;57.35;;
21814;SDS011;11069;48.988;8.450;2022-12-18T14:21:44;78.00;;;58.33;;
21814;SDS011;11069;48.988;8.450;2022-12-18T14:24:15;84.68;;;58.28;;
21814;SDS011;11069;48.988;8.450;2022-12-18T14:26:46;84.43;;;59.17;;
21814;SDS011;11069;48.988;8.450;2022-12-18T14:29:28;80.03;;;59.30;;
21814;SDS011;11069;48.988;8.450;2022-12-18T14:34:31;81.22;;;58.58;;
21814;SDS011;11069;48.988;8.450;2022-12-18T14:36:57;79.32;;;59.47;;
21814;SDS011;11069;48.988;8.450;2022-12-18T14:39:23;85.18;;;60.03;;
21814;SDS011;11069;48.988;8.450;2022-12-18T14:41:50;82.45;;;62.10;;
21814;SDS011;11069;48.988;8.450;2022-12-18T14:44:16;79.70;;;59.80;;
21814;SDS011;11069;48.988;8.450;2022-12-18T14:46:43;79.57;;;60.63;;
21814;SDS011;11069;48.988;8.450;2022-12-18T14:51:49;86.15;;;63.65;;
21814;SDS011;11069;48.988;8.450;2022-12-18T14:54:20;79.82;;;61.05;;
21814;SDS011;11069;48.988;8.450;2022-12-18T14:56:47;81.07;;;60.15;;
21814;SDS011;11069;48.988;8.450;2022-12-18T14:59:16;83.15;;;62.63;;
21814;SDS011;11069;48.988;8.450;2022-12-18T15:01:55;84.80;;;62.67;;
21814;SDS011;11069;48.988;8.450;2022-12-18T15:09:44;80.68;;;61.30;;
21814;SDS011;11069;48.988;8.450;2022-12-18T15:20:48;86.85;;;64.85;;
21814;SDS011;11069;48.988;8.450;2022-12-18T15:25:45;88.20;;;65.45;;
21814;SDS011;11069;48.988;8.450;2022-12-18T15:28:15;87.15;;;66.43;;
21814;SDS011;11069;48.988;8.450;2022-12-18T15:31:03;85.03;;;66.05;;
21814;SDS011;11069;48.988;8.450;2022-12-18T15:33:31;88.15;;;65.90;;
21814;SDS011;11069;48.988;8.450;2022-12-18T15:36:09;86.93;;;66.15;;
21814;SDS011;11069;48.988;8.450;2022-12-18T15:38:36;87.88;;;66.78;;
21814;SDS011;11069;48.988;8.450;2022-12-18T15:41:02;91.28;;;66.22;;
21814;SDS011;11069;48.988;8.450;2022-12-18T15:43:50;87.70;;;66.65;;
21814;SDS011;11069;48.988;8.450;2022-12-18T15:46:18;90.63;;;67.30;;
21814;SDS011;11069;48.988;8.450;2022-12-18T15:48:55;96.68;;;69.35;;
21814;SDS011;11069;48.988;8.450;2022-12-18T15:53:57;91.95;;;67.28;;
21814;SDS011;11069;48.988;8.450;2022-12-18T15:56:25;91.53;;;68.95;;
21814;SDS011;11069;48.988;8.450;2022-12-18T15:59:11;89.88;;;68.65;;
21814;SDS011;11069;48.988;8.450;2022-12-18T16:01:42;90.35;;;65.97;;
21814;SDS011;11069;48.988;8.450;2022-12-18T16:04:14;93.30;;;70.60;;
21814;SDS011;11069;48.988;8.450;2022-12-18T16:09:06;92.93;;;66.75;;
21814;SDS011;11069;48.988;8.450;2022-12-18T16:11:33;98.10;;;71.55;;
21814;SDS011;11069;48.988;8.450;2022-12-18T16:19:12;96.55;;;71.13;;
21814;SDS011;11069;48.988;8.450;2022-12-18T16:21:38;104.28;;;74.75;;
21814;SDS011;11069;48.988;8.450;2022-12-18T16:24:04;95.53;;;70.85;;
21814;SDS011;11069;48.988;8.450;2022-12-18T16:26:30;104.63;;;74.65;;
21814;SDS011;11069;48.988;8.450;2022-12-18T16:28:55;98.18;;;71.97;;
21814;SDS011;11069;48.988;8.450;2022-12-18T16:31:21;103.78;;;75.78;;
21814;SDS011;11069;48.988;8.450;2022-12-18T16:33:46;103.38;;;75.10;;
21814;SDS011;11069;48.988;8.450;2022-12-18T16:36:12;98.32;;;73.95;;
21814;SDS011;11069;48.988;8.450;2022-12-18T16:38:37;95.05;;;71.47;;
21814;SDS011;11069;48.988;8.450;2022-12-18T16:41:06;97.40;;;71.20;;
21814;SDS011;11069;48.988;8.450;2022-12-18T16:44:01;99.43;;;71.03;;
21814;SDS011;11069;48.988;8.450;2022-12-18T16:46:28;95.82;;;71.93;;
21814;SDS011;11069;48.988;8.450;2022-12-18T16:48:53;101.53;;;75.30;;
21814;SDS011;11069;48.988;8.450;2022-12-18T16:51:19;101.25;;;72.53;;
21814;SDS011;11069;48.988;8.450;2022-12-18T16:53:44;103.15;;;74.82;;
21814;SDS011;11069;48.988;8.450;2022-12-18T16:56:10;103.07;;;76.07;;
21814;SDS011;11069;48.988;8.450;2022-12-18T16:58:35;108.32;;;77.72;;
21814;SDS011;11069;48.988;8.450;2022-12-18T17:01:06;103.90;;;74.10;;
21814;SDS011;11069;48.988;8.450;2022-12-18T17:03:35;105.60;;;77.25;;
21814;SDS011;11069;48.988;8.450;2022-12-18T17:06:04;113.18;;;81.05;;
21814;SDS011;11069;48.988;8.450;2022-12-18T17:08:30;113.70;;;79.78;;